Latest Weather Observations for Stenhouse Bay

IDS60801

Issued at 3:01 pm CST Saturday 19 August 2017 (issued every 30 minutes, with the page automatically refreshed every 10 minutes)

About weather observations | Map of weather stations | Latest weather observations for SA | Other Formats
Station Details ID: 022049 Name: STENHOUSE BAY Lat: -35.28 Lon: 136.94 Height: 42.0 m
Data from the previous 72 hours. | See also: Recent months at Stenhouse Bay
Date/Time
CST
Temp
°C
App
Temp
°C
Dew
Point
°C
Rel
Hum
%
Delta-T
°C
Wind Press
QNH
hPa
Press
MSL
hPa
Rain since
9am
mm
Dir  Spd
km/h
Gust
km/h
Spd
kts
Gust
kts
19/03:00pm 13.9 11.1 5.3 56 4.0 E 9 13 5 7 1027.6 1027.7 0.0
19/02:30pm 14.2 11.2 5.8 57 4.0 E 11 13 6 7 1027.5 1027.6 0.0
19/02:00pm 14.1 11.2 4.7 53 4.4 E 9 11 5 6 1027.9 1028.0 0.0
19/01:30pm 14.3 11.9 5.4 55 4.2 ENE 7 11 4 6 1028.1 1028.2 0.0
19/01:00pm 14.0 11.1 4.9 54 4.2 ESE 9 13 5 7 1028.5 1028.6 0.0
19/12:30pm 14.2 11.7 4.8 53 4.3 E 7 11 4 6 1029.0 1029.1 0.0
19/12:00pm 13.7 10.7 4.3 53 4.3 SE 9 13 5 7 1029.5 1029.6 0.0
19/11:30am 14.0 11.3 5.4 56 4.0 SSE 9 15 5 8 1029.8 1029.9 0.0
19/11:00am 13.6 10.3 4.7 55 4.1 SSE 11 15 6 8 1030.1 1030.1 0.0
19/10:30am 13.6 10.3 4.5 54 4.2 SSE 11 15 6 8 1030.2 1030.2 0.0
19/10:00am 13.4 9.8 4.8 56 4.0 SSE 13 15 7 8 1030.2 1030.2 0.0
19/09:30am 13.3 9.2 4.5 55 4.0 SSE 15 19 8 10 1030.3 1030.3 0.0
19/09:00am 12.8 8.3 4.0 55 3.9 SSE 17 20 9 11 1030.1 1030.1 0.0
19/08:30am 12.4 7.9 4.1 57 3.7 S 17 22 9 12 1029.8 1029.9 0.0
19/08:00am 11.9 7.1 4.4 60 3.4 S 19 24 10 13 1029.5 1029.6 0.0
19/07:30am 11.4 6.5 4.2 61 3.2 S 19 24 10 13 1029.1 1029.2 0.0
19/07:00am 11.1 6.2 4.1 62 3.1 S 19 24 10 13 1028.7 1028.8 0.0
19/06:30am 11.1 6.6 4.3 63 3.0 S 17 24 9 13 1028.3 1028.4 0.0
19/06:00am 11.2 6.1 4.0 61 3.2 S 20 26 11 14 1028.1 1028.2 0.0
19/05:30am 11.0 6.0 3.5 60 3.3 S 19 24 10 13 1027.9 1028.0 0.0
19/05:00am 10.9 6.3 3.9 62 3.1 S 17 22 9 12 1027.7 1027.8 0.0
19/04:30am 11.1 6.1 3.6 60 3.3 S 19 24 10 13 1027.5 1027.6 0.0
19/04:00am 11.0 6.0 3.8 61 3.2 S 19 26 10 14 1027.3 1027.4 0.0
19/03:30am 11.0 5.9 4.2 63 3.0 S 20 26 11 14 1027.2 1027.3 0.0
19/03:00am 11.0 5.4 3.5 60 3.3 S 22 28 12 15 1027.2 1027.3 0.0
19/02:30am 11.1 5.9 3.6 60 3.3 S 20 26 11 14 1027.3 1027.4 0.0
19/02:00am 11.1 5.7 4.3 63 3.1 S 22 30 12 16 1027.2 1027.3 0.0
19/01:30am 11.2 5.8 4.4 63 3.0 S 22 30 12 16 1027.2 1027.3 0.0
19/01:00am 11.3 6.3 4.5 63 3.1 S 20 30 11 16 1027.2 1027.3 0.0
19/12:30am 11.4 5.7 5.1 65 2.9 S 24 32 13 17 1027.2 1027.3 0.0
19/12:00am 11.4 6.2 5.7 68 2.6 S 22 28 12 15 1027.2 1027.3 0.0
 
Date/Time
CST
Temp
°C
App
Temp
°C
Dew
Point
°C
Rel
Hum
%
Delta-T
°C
Wind Press
QNH
hPa
Press
MSL
hPa
Rain since
9am
mm
Dir  Spd
km/h
Gust
km/h
Spd
kts
Gust
kts
18/11:30pm 11.5 6.7 5.8 68 2.6 S 20 28 11 15 1027.2 1027.3 0.0
18/11:00pm 11.8 7.1 5.9 67 2.8 S 20 28 11 15 1027.2 1027.3 0.0
18/10:30pm 11.6 6.5 5.9 68 2.6 S 22 28 12 15 1027.0 1027.1 0.0
18/10:00pm 11.8 7.0 5.7 66 2.8 SSW 20 32 11 17 1027.0 1027.1 0.0
18/09:30pm 11.3 6.8 6.0 70 2.5 SW 19 26 10 14 1027.1 1027.2 0.0
18/09:00pm 10.9 7.7 6.8 76 1.9 SSW 13 22 7 12 1026.9 1027.0 0.0
18/08:30pm 11.0 7.8 6.7 75 2.0 SSW 13 20 7 11 1026.7 1026.8 0.0
18/08:00pm 11.7 8.0 6.4 70 2.5 SSW 15 24 8 13 1026.4 1026.5 0.0
18/07:30pm 12.1 6.4 6.8 70 2.5 SW 26 43 14 23 1026.2 1026.3 0.0
18/07:00pm 12.3 5.8 2.7 52 4.2 SW 26 35 14 19 1025.9 1026.0 0.0
18/06:30pm 12.3 5.6 3.8 56 3.8 SW 28 39 15 21 1025.7 1025.7 0.0
18/06:00pm 12.3 6.4 3.8 56 3.8 SW 24 35 13 19 1025.5 1025.5 0.0
18/05:30pm 12.5 5.7 3.2 53 4.1 SW 28 37 15 20 1025.1 1025.1 0.0
18/05:00pm 12.5 6.0 4.7 59 3.6 SW 28 43 15 23 1024.7 1024.7 0.0
18/04:30pm 13.1 6.1 4.0 54 4.1 SW 30 43 16 23 1024.4 1024.4 0.0
18/04:00pm 13.0 5.5 4.2 55 4.0 SW 33 43 18 23 1024.2 1024.2 0.0
18/03:30pm 13.8 6.8 3.9 51 4.5 SW 30 41 16 22 1024.1 1024.1 0.0
18/03:00pm 13.4 6.0 4.0 53 4.3 SW 32 43 17 23 1024.0 1024.0 0.0
18/02:30pm 13.9 7.2 5.8 58 3.8 SW 30 41 16 22 1023.8 1023.8 0.0
18/02:00pm 13.8 6.4 5.2 56 4.0 SW 33 46 18 25 1023.8 1023.8 0.0
18/01:30pm 12.9 5.1 5.1 59 3.6 SW 35 48 19 26 1023.7 1023.7 0.0
18/01:00pm 13.9 6.7 5.8 58 3.8 SW 33 48 18 26 1023.5 1023.5 0.0
18/12:30pm 13.7 6.2 4.3 53 4.3 SW 33 46 18 25 1023.6 1023.6 0.0
18/12:00pm 13.5 4.9 4.6 55 4.1 SW 39 50 21 27 1023.7 1023.7 0.0
18/11:31am 14.0 7.0 5.9 58 3.9 WSW 32 50 17 27 1023.7 1023.7 0.0
18/11:30am 13.9 6.7 6.0 59 3.7 SW 33 50 18 27 1023.7 1023.7 0.0
18/11:02am 13.7 6.3 4.8 55 4.1 SW 33 52 18 28 1023.5 1023.5 0.0
18/11:00am 13.7 6.4 4.6 54 4.2 SW 32 48 17 26 1023.5 1023.5 0.0
18/10:34am 11.3 3.8 4.7 64 3.0 SW 33 54 18 29 1023.5 1023.5 0.0
18/10:30am 11.2 3.3 4.4 63 3.0 SW 35 54 19 29 1023.4 1023.4 0.0
18/10:00am 12.2 5.0 5.8 65 3.0 SW 33 48 18 26 1023.1 1023.1 0.0
18/09:35am 12.5 5.2 5.4 62 3.3 SW 33 57 18 31 1022.4 1022.4 0.0
18/09:30am 13.1 5.7 5.0 58 3.7 SW 33 46 18 25 1022.4 1022.4 0.0
18/09:01am 11.7 5.0 5.6 66 2.8 SW 30 50 16 27 1022.0 1022.0 0.0
18/09:00am 11.7 4.6 5.3 65 2.9 SW 32 50 17 27 1021.9 1021.9 2.8
18/08:34am 12.4 4.9 4.6 59 3.6 SW 33 52 18 28 1021.3 1021.3 2.8
18/08:30am 12.4 4.6 4.9 60 3.4 SW 35 48 19 26 1021.3 1021.3 2.8
18/08:00am 12.1 3.0 1.7 49 4.4 SW 39 54 21 29 1020.6 1020.6 2.8
18/07:31am 11.5 3.2 4.0 60 3.4 WSW 37 57 20 31 1020.0 1020.0 2.8
18/07:30am 11.5 3.2 4.0 60 3.3 WSW 37 50 20 27 1020.0 1020.0 2.8
18/07:06am 11.1 3.2 4.1 62 3.1 SW 35 57 19 31 1019.7 1019.7 2.8
18/07:00am 10.5 2.6 4.6 67 2.7 SW 35 44 19 24 1019.8 1019.8 2.8
18/06:35am 11.7 2.0 2.7 54 3.9 SW 43 63 23 34 1019.1 1019.1 2.8
18/06:30am 11.6 2.4 3.6 58 3.5 SW 41 56 22 30 1019.2 1019.2 2.8
18/06:00am 11.5 2.6 3.3 57 3.6 SW 39 61 21 33 1018.6 1018.6 2.8
18/05:30am 11.4 2.2 3.4 58 3.5 SW 41 61 22 33 1018.2 1018.2 2.8
18/05:00am 10.2 0.6 4.4 67 2.6 WSW 44 70 24 38 1017.8 1017.8 2.8
18/04:30am 8.6 0.4 5.0 78 1.6 WSW 37 61 20 33 1017.3 1017.3 2.6
18/04:02am 10.8 2.8 4.0 63 3.0 WSW 35 56 19 30 1017.1 1017.1 1.8
18/04:00am 10.8 2.1 4.0 63 3.0 SW 39 56 21 30 1017.0 1017.0 1.8
18/03:31am 11.8 3.0 3.6 57 3.6 SW 39 59 21 32 1016.5 1016.5 1.8
18/03:30am 11.9 3.2 4.2 59 3.5 SW 39 56 21 30 1016.5 1016.5 1.8
18/03:08am 11.3 3.4 4.1 61 3.2 WSW 35 56 19 30 1016.4 1016.4 1.8
18/03:00am 11.1 3.1 3.9 61 3.2 WSW 35 50 19 27 1016.4 1016.4 1.8
18/02:42am 11.4 2.4 4.4 62 3.2 WSW 41 61 22 33 1016.2 1016.2 1.8
18/02:30am 11.3 3.1 4.5 63 3.1 WSW 37 52 20 28 1016.2 1016.2 1.8
18/02:00am 10.2 2.9 4.6 68 2.5 WSW 32 50 17 27 1016.0 1016.0 1.8
18/01:30am 8.6 -1.0 3.6 71 2.2 WSW 43 72 23 39 1016.1 1016.1 1.8
18/01:00am 11.8 2.8 4.3 60 3.4 WSW 41 59 22 32 1015.6 1015.6 1.6
18/12:30am 11.4 2.1 2.9 56 3.7 WSW 41 69 22 37 1015.0 1015.0 1.6
18/12:05am 11.1 2.7 3.9 61 3.2 WSW 37 56 20 30 1014.8 1014.8 1.6
18/12:00am 11.1 3.7 4.8 65 2.9 WSW 33 50 18 27 1014.9 1014.9 1.6
 
Date/Time
CST
Temp
°C
App
Temp
°C
Dew
Point
°C
Rel
Hum
%
Delta-T
°C
Wind Press
QNH
hPa
Press
MSL
hPa
Rain since
9am
mm
Dir  Spd
km/h
Gust
km/h
Spd
kts
Gust
kts
17/11:30pm 10.5 1.6 5.3 70 2.4 WSW 41 61 22 33 1014.9 1014.9 1.6
17/11:00pm 10.5 2.4 3.3 61 3.1 WSW 35 61 19 33 1014.3 1014.3 1.6
17/10:30pm 11.7 2.2 4.0 59 3.5 WSW 43 65 23 35 1013.8 1013.8 1.4
17/10:00pm 11.7 1.9 3.2 56 3.7 WSW 44 69 24 37 1013.4 1013.4 1.4
17/09:31pm 11.5 3.0 3.0 56 3.7 WSW 37 57 20 31 1013.1 1013.1 1.4
17/09:30pm 11.6 3.2 3.9 59 3.4 WSW 37 52 20 28 1013.1 1013.1 1.4
17/09:00pm 10.9 2.3 4.6 65 2.8 WSW 39 59 21 32 1012.8 1012.8 1.4
17/08:31pm 11.8 2.0 2.3 52 4.1 WSW 43 63 23 34 1012.4 1012.4 1.4
17/08:30pm 11.8 2.4 2.3 52 4.1 WSW 41 57 22 31 1012.4 1012.4 1.4
17/08:00pm 11.6 1.6 2.1 52 4.1 WSW 44 65 24 35 1011.9 1011.9 1.4
17/07:30pm 11.3 2.9 5.4 67 2.7 WSW 39 61 21 33 1011.6 1011.6 1.4
17/07:00pm 11.5 1.8 4.0 60 3.4 WSW 44 67 24 36 1011.0 1011.0 1.4
17/06:30pm 11.5 2.3 3.3 57 3.6 W 41 61 22 33 1010.6 1010.6 1.4
17/06:06pm 11.4 1.8 3.2 57 3.6 WSW 43 69 23 37 1010.4 1010.4 1.4
17/06:00pm 11.4 1.8 3.2 57 3.6 WSW 43 57 23 31 1010.3 1010.3 1.4
17/05:30pm 12.1 2.9 3.6 56 3.8 W 41 63 22 34 1009.9 1009.9 1.4
17/05:09pm 12.7 2.9 3.1 52 4.3 W 44 80 24 43 1009.2 1009.2 1.4
17/05:00pm 12.6 3.5 3.8 55 4.0 W 41 59 22 32 1009.1 1009.1 1.4
17/04:30pm 13.1 3.9 3.5 52 4.3 W 41 70 22 38 1008.7 1008.7 1.4
17/04:00pm 13.7 3.4 4.6 54 4.2 W 48 67 26 36 1008.4 1008.4 1.4
17/03:30pm 14.4 5.9 5.2 54 4.3 W 39 61 21 33 1008.0 1008.0 1.4
17/03:00pm 14.2 4.9 5.0 54 4.3 W 43 65 23 35 1008.0 1008.0 1.4
17/02:30pm 13.6 5.4 6.5 62 3.4 W 39 63 21 34 1007.8 1007.8 1.4
17/02:00pm 10.6 2.0 8.0 84 1.3 W 43 63 23 34 1008.1 1008.1 1.4
17/01:30pm 12.7 3.6 5.8 63 3.3 W 43 76 23 41 1007.6 1007.6 1.0
17/01:00pm 13.5 4.9 6.6 63 3.3 W 41 67 22 36 1007.5 1007.5 1.0
17/12:30pm 11.3 3.9 8.2 81 1.5 WSW 37 59 20 32 1007.6 1007.6 1.0
17/12:00pm 10.2 1.5 7.8 85 1.2 WSW 43 76 23 41 1007.8 1007.8 0.8
17/11:53am 11.7 4.3 6.8 72 2.3 W 35 76 19 41 1007.9 1007.9 0.4
17/11:37am 14.5 6.8 7.1 61 3.6 W 37 56 20 30 1007.4 1007.4 0.0
17/11:30am 14.2 5.1 6.1 58 3.9 W 43 59 23 32 1007.5 1007.5 0.0
17/11:00am 14.6 7.6 6.2 57 4.0 W 32 50 17 27 1007.5 1007.5 0.0
17/10:30am 14.6 5.5 5.7 55 4.3 W 43 63 23 34 1007.4 1007.4 0.0
17/10:00am 14.9 6.6 6.2 56 4.2 W 39 61 21 33 1007.0 1007.0 0.0
17/09:33am 14.6 6.9 5.4 54 4.4 W 35 59 19 32 1006.9 1006.9 0.0
17/09:30am 14.5 7.0 6.1 57 4.0 W 35 52 19 28 1006.9 1006.9 0.0
17/09:00am 13.7 6.7 6.1 60 3.6 WNW 32 52 17 28 1006.8 1006.8 8.8
17/08:30am 13.2 5.7 4.6 56 4.0 WNW 33 57 18 31 1006.7 1006.6 8.8
17/08:29am 13.2 5.7 4.4 55 4.0 WNW 33 57 18 31 1006.7 1006.6 8.8
17/08:00am 12.2 5.7 6.5 68 2.7 W 30 43 16 23 1006.4 1006.3 8.8
17/07:30am 11.6 5.1 4.8 63 3.1 WSW 28 41 15 22 1006.3 1006.2 8.8
17/07:15am 12.3 5.8 6.4 67 2.8 W 30 50 16 27 1006.0 1006.0 8.8
17/07:00am 12.1 5.8 5.7 65 3.0 W 28 44 15 24 1005.9 1005.9 8.8
17/06:30am 11.9 5.3 6.2 68 2.7 W 30 46 16 25 1005.5 1005.5 8.8
17/06:01am 11.8 4.8 6.1 68 2.7 W 32 52 17 28 1005.4 1005.4 8.8
17/06:00am 11.6 4.6 6.1 69 2.6 W 32 43 17 23 1005.4 1005.4 8.8
17/05:33am 10.8 4.9 7.3 79 1.7 WSW 28 46 15 25 1005.5 1005.5 8.8
17/05:30am 11.7 6.5 8.7 82 1.5 WSW 26 35 14 19 1005.4 1005.4 8.8
17/05:00am 11.7 5.7 7.0 73 2.3 W 28 46 15 25 1005.1 1005.1 8.8
17/04:59am 11.7 5.7 7.2 74 2.2 W 28 46 15 25 1005.1 1005.1 8.8
17/04:30am 11.7 5.6 8.4 80 1.6 W 30 41 16 22 1004.9 1004.9 8.6
17/04:00am 11.1 6.7 9.0 87 1.0 W 22 32 12 17 1004.8 1004.8 8.6
17/03:30am 9.9 4.1 8.0 88 0.9 W 28 41 15 22 1005.1 1005.1 8.6
17/03:07am 9.6 3.4 7.9 89 0.8 W 30 50 16 27 1004.5 1004.5 8.6
17/03:00am 9.8 2.7 7.9 88 0.9 W 35 52 19 28 1004.9 1004.9 8.6
17/02:55am 10.7 5.2 9.0 89 0.8 W 28 48 15 26 1005.3 1005.3 8.0
17/02:30am 10.6 5.9 9.2 91 0.7 WNW 24 39 13 21 1005.1 1005.1 7.6
17/02:03am 10.9 5.1 9.3 90 0.8 WNW 30 48 16 26 1005.2 1005.2 6.6
17/02:00am 11.2 6.3 9.8 91 0.7 WNW 26 43 14 23 1005.3 1005.3 6.6
17/01:30am 11.1 6.8 9.5 90 0.8 WNW 22 30 12 16 1005.1 1005.1 6.2
17/01:00am 10.8 7.0 9.2 90 0.8 WNW 19 32 10 17 1005.3 1005.3 6.2
17/12:30am 10.6 6.6 9.2 91 0.7 W 20 33 11 18 1005.7 1005.7 6.0
17/12:12am 10.8 5.4 9.4 91 0.7 WNW 28 50 15 27 1006.1 1006.1 5.6
17/12:00am 12.3 8.5 11.2 93 0.6 WNW 22 32 12 17 1005.7 1005.7 3.2
 
Date/Time
CST
Temp
°C
App
Temp
°C
Dew
Point
°C
Rel
Hum
%
Delta-T
°C
Wind Press
QNH
hPa
Press
MSL
hPa
Rain since
9am
mm
Dir  Spd
km/h
Gust
km/h
Spd
kts
Gust
kts
16/11:30pm 12.1 8.1 10.5 90 0.8 NW 22 30 12 16 1005.7 1005.7 2.8
16/11:00pm 11.9 7.9 10.6 92 0.7 NW 22 33 12 18 1006.1 1006.1 2.8
16/10:30pm 12.0 8.4 10.6 91 0.7 NW 20 30 11 16 1006.5 1006.4 2.8
16/10:00pm 12.0 7.7 10.6 91 0.7 WNW 24 33 13 18 1006.7 1006.6 2.8
16/09:30pm 12.1 9.5 10.7 91 0.7 WNW 15 19 8 10 1006.7 1006.6 2.4
16/09:00pm 11.9 8.4 10.1 89 0.9 WNW 19 26 10 14 1006.8 1006.8 2.4
16/08:30pm 11.4 7.3 10.0 91 0.7 WNW 22 30 12 16 1006.7 1006.6 2.4
16/08:00pm 11.9 7.1 10.3 90 0.8 WNW 26 41 14 22 1006.5 1006.4 2.2
16/07:30pm 12.1 6.6 10.5 90 0.8 W 30 44 16 24 1006.0 1006.0 2.0
16/07:03pm 13.4 7.0 9.3 76 2.1 WNW 33 52 18 28 1005.6 1005.6 0.0
16/07:00pm 13.4 6.6 9.3 76 2.1 WNW 35 52 19 28 1005.5 1005.5 0.0
16/06:39pm 13.5 8.1 9.6 77 2.0 WNW 28 46 15 25 1005.3 1005.3 0.0
16/06:30pm 13.8 7.8 10.2 79 1.9 WNW 32 48 17 26 1005.2 1005.2 0.0
16/06:00pm 13.7 7.9 9.6 76 2.1 WNW 30 43 16 23 1005.0 1005.0 0.0
16/05:38pm 13.5 8.1 9.6 77 2.0 WNW 28 46 15 25 1005.1 1005.1 0.0
16/05:30pm 13.5 7.7 9.4 76 2.1 WNW 30 43 16 23 1005.1 1005.1 0.0
16/05:00pm 14.4 8.6 9.4 72 2.6 WNW 30 44 16 24 1004.7 1004.7 0.0
16/04:46pm 14.9 8.0 8.8 67 3.1 WNW 35 59 19 32 1004.7 1004.7 0.0
16/04:30pm 15.0 9.1 8.9 67 3.1 WNW 30 44 16 24 1004.9 1004.9 0.0
16/04:05pm 15.6 9.3 9.1 65 3.3 WNW 32 50 17 27 1004.9 1004.9 0.0
16/04:00pm 15.8 10.5 9.9 68 3.1 WNW 28 43 15 23 1004.9 1004.9 0.0
16/03:30pm 15.2 9.0 9.3 68 3.1 WNW 32 46 17 25 1004.8 1004.8 0.0

Other Formats:

Comma delimited format used in spreadsheet applications
http://www.bom.gov.au/fwo/IDS60801/IDS60801.95806.axf

JavaScript Object Notation format (JSON) in row-major order
http://www.bom.gov.au/fwo/IDS60801/IDS60801.95806.json